sensor_id;sensor_type;location;lat;lon;timestamp;pressure;altitude;pressure_sealevel;temperature;humidity
42591;BME280;28218;53.342;-6.216;2022-12-18T00:01:23;101149.66;;;2.58;100.00
42591;BME280;28218;53.342;-6.216;2022-12-18T00:03:53;101146.25;;;2.58;100.00
42591;BME280;28218;53.342;-6.216;2022-12-18T00:06:24;101137.72;;;2.55;100.00
42591;BME280;28218;53.342;-6.216;2022-12-18T00:08:52;101137.50;;;2.59;100.00
42591;BME280;28218;53.342;-6.216;2022-12-18T00:11:22;101132.09;;;2.62;100.00
42591;BME280;28218;53.342;-6.216;2022-12-18T00:13:54;101137.91;;;2.65;100.00
42591;BME280;28218;53.342;-6.216;2022-12-18T00:16:24;101131.44;;;2.71;100.00
42591;BME280;28218;53.342;-6.216;2022-12-18T00:18:55;101136.22;;;2.77;100.00
42591;BME280;28218;53.342;-6.216;2022-12-18T00:21:23;101133.19;;;2.83;100.00
42591;BME280;28218;53.342;-6.216;2022-12-18T00:23:52;101133.78;;;2.87;100.00
42591;BME280;28218;53.342;-6.216;2022-12-18T00:26:22;101126.41;;;2.93;100.00
42591;BME280;28218;53.342;-6.216;2022-12-18T00:28:58;101117.44;;;2.97;100.00
42591;BME280;28218;53.342;-6.216;2022-12-18T00:31:27;101120.53;;;3.02;100.00
42591;BME280;28218;53.342;-6.216;2022-12-18T00:33:56;101121.16;;;3.06;100.00
42591;BME280;28218;53.342;-6.216;2022-12-18T00:36:26;101118.31;;;3.09;100.00
42591;BME280;28218;53.342;-6.216;2022-12-18T00:38:56;101108.72;;;3.10;100.00
42591;BME280;28218;53.342;-6.216;2022-12-18T00:41:25;101103.44;;;3.11;100.00
42591;BME280;28218;53.342;-6.216;2022-12-18T00:44:14;101094.66;;;3.12;100.00
42591;BME280;28218;53.342;-6.216;2022-12-18T00:46:43;101094.44;;;3.15;100.00
42591;BME280;28218;53.342;-6.216;2022-12-18T00:49:12;101086.53;;;3.17;100.00
42591;BME280;28218;53.342;-6.216;2022-12-18T00:51:40;101085.44;;;3.19;100.00
42591;BME280;28218;53.342;-6.216;2022-12-18T00:54:10;101077.44;;;3.22;100.00
42591;BME280;28218;53.342;-6.216;2022-12-18T00:56:39;101056.38;;;3.25;100.00
42591;BME280;28218;53.342;-6.216;2022-12-18T00:59:17;101053.53;;;3.28;100.00
42591;BME280;28218;53.342;-6.216;2022-12-18T01:01:46;101047.28;;;3.31;100.00
42591;BME280;28218;53.342;-6.216;2022-12-18T01:04:15;101041.00;;;3.33;100.00
42591;BME280;28218;53.342;-6.216;2022-12-18T01:06:43;101035.34;;;3.40;100.00
42591;BME280;28218;53.342;-6.216;2022-12-18T01:09:11;101023.25;;;3.39;100.00
42591;BME280;28218;53.342;-6.216;2022-12-18T01:11:39;101012.00;;;3.38;100.00
42591;BME280;28218;53.342;-6.216;2022-12-18T01:14:08;101009.19;;;3.41;100.00
42591;BME280;28218;53.342;-6.216;2022-12-18T01:16:38;101009.06;;;3.43;100.00
42591;BME280;28218;53.342;-6.216;2022-12-18T01:19:06;100996.88;;;3.43;100.00
42591;BME280;28218;53.342;-6.216;2022-12-18T01:21:35;100992.38;;;3.45;100.00
42591;BME280;28218;53.342;-6.216;2022-12-18T01:24:04;100983.63;;;3.46;100.00
42591;BME280;28218;53.342;-6.216;2022-12-18T01:26:33;100976.63;;;3.47;100.00
42591;BME280;28218;53.342;-6.216;2022-12-18T01:29:01;100978.41;;;3.46;100.00
42591;BME280;28218;53.342;-6.216;2022-12-18T01:31:31;100968.81;;;3.47;100.00
42591;BME280;28218;53.342;-6.216;2022-12-18T01:34:02;100967.03;;;3.47;100.00
42591;BME280;28218;53.342;-6.216;2022-12-18T01:36:31;100952.34;;;3.46;100.00
42591;BME280;28218;53.342;-6.216;2022-12-18T01:39:01;100947.16;;;3.46;100.00
42591;BME280;28218;53.342;-6.216;2022-12-18T01:41:31;100939.47;;;3.45;100.00
42591;BME280;28218;53.342;-6.216;2022-12-18T01:47:15;100919.78;;;3.41;100.00
42591;BME280;28218;53.342;-6.216;2022-12-18T01:49:47;100904.28;;;3.39;100.00
42591;BME280;28218;53.342;-6.216;2022-12-18T01:52:16;100900.13;;;3.37;100.00
42591;BME280;28218;53.342;-6.216;2022-12-18T01:54:45;100882.97;;;3.34;100.00
42591;BME280;28218;53.342;-6.216;2022-12-18T01:57:14;100882.84;;;3.36;100.00
42591;BME280;28218;53.342;-6.216;2022-12-18T01:59:45;100889.72;;;3.37;100.00
42591;BME280;28218;53.342;-6.216;2022-12-18T02:02:17;100871.25;;;3.40;100.00
42591;BME280;28218;53.342;-6.216;2022-12-18T02:04:48;100856.31;;;3.42;100.00
42591;BME280;28218;53.342;-6.216;2022-12-18T02:07:20;100837.13;;;3.43;100.00
42591;BME280;28218;53.342;-6.216;2022-12-18T02:09:58;100836.09;;;3.45;100.00
42591;BME280;28218;53.342;-6.216;2022-12-18T02:12:31;100831.69;;;3.46;100.00
42591;BME280;28218;53.342;-6.216;2022-12-18T02:15:07;100829.09;;;3.46;100.00
42591;BME280;28218;53.342;-6.216;2022-12-18T02:17:42;100836.91;;;3.46;100.00
42591;BME280;28218;53.342;-6.216;2022-12-18T02:20:16;100837.72;;;3.46;100.00
42591;BME280;28218;53.342;-6.216;2022-12-18T02:22:58;100833.34;;;3.47;100.00
42591;BME280;28218;53.342;-6.216;2022-12-18T02:25:40;100841.63;;;3.52;100.00
42591;BME280;28218;53.342;-6.216;2022-12-18T02:28:16;100846.63;;;3.55;100.00
42591;BME280;28218;53.342;-6.216;2022-12-18T02:30:49;100842.00;;;3.58;100.00
42591;BME280;28218;53.342;-6.216;2022-12-18T02:33:19;100833.09;;;3.61;100.00
42591;BME280;28218;53.342;-6.216;2022-12-18T02:35:49;100823.13;;;3.66;100.00
42591;BME280;28218;53.342;-6.216;2022-12-18T02:38:19;100821.25;;;3.68;100.00
42591;BME280;28218;53.342;-6.216;2022-12-18T02:40:48;100808.69;;;3.73;100.00
42591;BME280;28218;53.342;-6.216;2022-12-18T02:43:19;100804.16;;;3.75;100.00
42591;BME280;28218;53.342;-6.216;2022-12-18T02:45:49;100793.97;;;3.83;100.00
42591;BME280;28218;53.342;-6.216;2022-12-18T02:48:19;100795.84;;;3.93;100.00
42591;BME280;28218;53.342;-6.216;2022-12-18T02:50:55;100782.31;;;3.99;100.00
42591;BME280;28218;53.342;-6.216;2022-12-18T02:53:31;100773.72;;;4.08;100.00
42591;BME280;28218;53.342;-6.216;2022-12-18T02:56:05;100759.63;;;4.10;100.00
42591;BME280;28218;53.342;-6.216;2022-12-18T02:58:41;100749.78;;;4.14;100.00
42591;BME280;28218;53.342;-6.216;2022-12-18T03:01:18;100737.44;;;4.16;100.00
42591;BME280;28218;53.342;-6.216;2022-12-18T03:03:51;100720.81;;;4.17;100.00
42591;BME280;28218;53.342;-6.216;2022-12-18T03:06:26;100712.81;;;4.30;100.00
42591;BME280;28218;53.342;-6.216;2022-12-18T03:08:59;100703.41;;;4.39;100.00
42591;BME280;28218;53.342;-6.216;2022-12-18T03:11:32;100696.00;;;4.44;100.00
42591;BME280;28218;53.342;-6.216;2022-12-18T03:14:20;100675.81;;;4.46;100.00
42591;BME280;28218;53.342;-6.216;2022-12-18T03:16:51;100663.50;;;4.48;100.00
42591;BME280;28218;53.342;-6.216;2022-12-18T03:19:24;100662.28;;;4.52;100.00
42591;BME280;28218;53.342;-6.216;2022-12-18T03:21:56;100656.09;;;4.53;100.00
42591;BME280;28218;53.342;-6.216;2022-12-18T03:24:26;100647.88;;;4.57;100.00
42591;BME280;28218;53.342;-6.216;2022-12-18T03:27:00;100645.00;;;4.60;100.00
42591;BME280;28218;53.342;-6.216;2022-12-18T03:29:34;100641.16;;;4.65;100.00
42591;BME280;28218;53.342;-6.216;2022-12-18T03:32:06;100649.56;;;4.68;100.00
42591;BME280;28218;53.342;-6.216;2022-12-18T03:34:38;100641.34;;;4.73;100.00
42591;BME280;28218;53.342;-6.216;2022-12-18T03:37:08;100646.78;;;4.60;100.00
42591;BME280;28218;53.342;-6.216;2022-12-18T03:39:36;100637.97;;;4.61;100.00
42591;BME280;28218;53.342;-6.216;2022-12-18T03:42:07;100654.22;;;4.65;100.00
42591;BME280;28218;53.342;-6.216;2022-12-18T03:44:43;100671.53;;;4.66;100.00
42591;BME280;28218;53.342;-6.216;2022-12-18T03:47:15;100673.31;;;4.65;100.00
42591;BME280;28218;53.342;-6.216;2022-12-18T03:49:48;100679.91;;;4.69;100.00
42591;BME280;28218;53.342;-6.216;2022-12-18T03:52:25;100673.19;;;4.67;100.00
42591;BME280;28218;53.342;-6.216;2022-12-18T03:54:55;100709.59;;;4.68;100.00
42591;BME280;28218;53.342;-6.216;2022-12-18T03:57:28;100717.66;;;4.86;100.00
42591;BME280;28218;53.342;-6.216;2022-12-18T04:00:02;100704.03;;;4.82;100.00
42591;BME280;28218;53.342;-6.216;2022-12-18T04:02:33;100692.75;;;4.82;100.00
42591;BME280;28218;53.342;-6.216;2022-12-18T04:05:05;100698.13;;;4.80;100.00
42591;BME280;28218;53.342;-6.216;2022-12-18T04:07:35;100705.13;;;4.80;100.00
42591;BME280;28218;53.342;-6.216;2022-12-18T04:10:06;100701.66;;;4.79;100.00
42591;BME280;28218;53.342;-6.216;2022-12-18T04:12:37;100702.09;;;4.84;100.00
42591;BME280;28218;53.342;-6.216;2022-12-18T04:15:08;100705.41;;;4.86;100.00
42591;BME280;28218;53.342;-6.216;2022-12-18T04:17:36;100704.59;;;4.86;100.00
42591;BME280;28218;53.342;-6.216;2022-12-18T04:20:05;100708.16;;;4.85;100.00
42591;BME280;28218;53.342;-6.216;2022-12-18T04:22:34;100711.72;;;4.84;100.00
42591;BME280;28218;53.342;-6.216;2022-12-18T04:25:02;100703.88;;;4.84;100.00
42591;BME280;28218;53.342;-6.216;2022-12-18T04:27:30;100687.28;;;4.85;100.00
42591;BME280;28218;53.342;-6.216;2022-12-18T04:29:59;100678.59;;;4.84;100.00
42591;BME280;28218;53.342;-6.216;2022-12-18T04:32:29;100664.63;;;4.85;100.00
42591;BME280;28218;53.342;-6.216;2022-12-18T04:34:57;100649.88;;;4.84;100.00
42591;BME280;28218;53.342;-6.216;2022-12-18T04:37:25;100642.75;;;4.86;100.00
42591;BME280;28218;53.342;-6.216;2022-12-18T04:39:54;100631.34;;;4.87;100.00
42591;BME280;28218;53.342;-6.216;2022-12-18T04:42:22;100620.50;;;4.92;100.00
42591;BME280;28218;53.342;-6.216;2022-12-18T04:44:50;100615.84;;;4.96;100.00
42591;BME280;28218;53.342;-6.216;2022-12-18T04:47:18;100603.47;;;4.98;100.00
42591;BME280;28218;53.342;-6.216;2022-12-18T04:49:48;100598.13;;;4.99;100.00
42591;BME280;28218;53.342;-6.216;2022-12-18T04:52:16;100614.34;;;5.03;100.00
42591;BME280;28218;53.342;-6.216;2022-12-18T04:54:44;100597.44;;;5.07;100.00
42591;BME280;28218;53.342;-6.216;2022-12-18T04:57:12;100592.63;;;5.12;100.00
42591;BME280;28218;53.342;-6.216;2022-12-18T04:59:40;100578.50;;;5.15;100.00
42591;BME280;28218;53.342;-6.216;2022-12-18T05:02:09;100574.75;;;5.17;100.00
42591;BME280;28218;53.342;-6.216;2022-12-18T05:04:37;100568.59;;;5.18;100.00
42591;BME280;28218;53.342;-6.216;2022-12-18T05:07:06;100553.75;;;5.19;100.00
42591;BME280;28218;53.342;-6.216;2022-12-18T05:09:35;100539.88;;;5.18;100.00
42591;BME280;28218;53.342;-6.216;2022-12-18T05:12:03;100528.72;;;5.16;100.00
42591;BME280;28218;53.342;-6.216;2022-12-18T05:14:31;100529.53;;;5.17;100.00
42591;BME280;28218;53.342;-6.216;2022-12-18T05:16:59;100507.28;;;5.22;100.00
42591;BME280;28218;53.342;-6.216;2022-12-18T05:19:27;100510.84;;;5.21;100.00
42591;BME280;28218;53.342;-6.216;2022-12-18T05:21:56;100483.06;;;5.20;100.00
42591;BME280;28218;53.342;-6.216;2022-12-18T05:24:25;100481.28;;;5.21;100.00
42591;BME280;28218;53.342;-6.216;2022-12-18T05:26:53;100473.34;;;5.22;100.00
42591;BME280;28218;53.342;-6.216;2022-12-18T05:29:22;100468.94;;;5.23;100.00
42591;BME280;28218;53.342;-6.216;2022-12-18T05:31:50;100468.09;;;5.22;100.00
42591;BME280;28218;53.342;-6.216;2022-12-18T05:34:18;100483.06;;;5.20;100.00
42591;BME280;28218;53.342;-6.216;2022-12-18T05:36:46;100470.03;;;5.20;100.00
42591;BME280;28218;53.342;-6.216;2022-12-18T05:39:14;100463.97;;;5.20;100.00
42591;BME280;28218;53.342;-6.216;2022-12-18T05:41:44;100470.72;;;5.22;100.00
42591;BME280;28218;53.342;-6.216;2022-12-18T05:44:12;100459.41;;;5.22;100.00
42591;BME280;28218;53.342;-6.216;2022-12-18T05:46:40;100463.00;;;5.21;100.00
42591;BME280;28218;53.342;-6.216;2022-12-18T05:49:08;100464.13;;;5.18;100.00
42591;BME280;28218;53.342;-6.216;2022-12-18T05:51:36;100456.69;;;5.23;100.00
42591;BME280;28218;53.342;-6.216;2022-12-18T05:54:05;100458.47;;;5.23;100.00
42591;BME280;28218;53.342;-6.216;2022-12-18T05:56:34;100461.09;;;5.23;100.00
42591;BME280;28218;53.342;-6.216;2022-12-18T05:59:03;100442.81;;;5.23;100.00
42591;BME280;28218;53.342;-6.216;2022-12-18T06:01:31;100448.69;;;5.25;100.00
42591;BME280;28218;53.342;-6.216;2022-12-18T06:04:00;100456.38;;;5.26;100.00
42591;BME280;28218;53.342;-6.216;2022-12-18T06:06:28;100458.06;;;5.27;100.00
42591;BME280;28218;53.342;-6.216;2022-12-18T06:08:57;100445.94;;;5.26;100.00
42591;BME280;28218;53.342;-6.216;2022-12-18T06:11:26;100444.84;;;5.29;100.00
42591;BME280;28218;53.342;-6.216;2022-12-18T06:13:56;100444.84;;;5.29;100.00
42591;BME280;28218;53.342;-6.216;2022-12-18T06:16:28;100420.38;;;5.30;100.00
42591;BME280;28218;53.342;-6.216;2022-12-18T06:18:56;100420.38;;;5.30;100.00
42591;BME280;28218;53.342;-6.216;2022-12-18T06:21:25;100425.44;;;5.31;100.00
42591;BME280;28218;53.342;-6.216;2022-12-18T06:23:54;100428.91;;;5.32;100.00
42591;BME280;28218;53.342;-6.216;2022-12-18T06:26:23;100420.22;;;5.31;100.00
42591;BME280;28218;53.342;-6.216;2022-12-18T06:28:54;100408.28;;;5.29;100.00
42591;BME280;28218;53.342;-6.216;2022-12-18T06:31:22;100412.13;;;5.25;100.00
42591;BME280;28218;53.342;-6.216;2022-12-18T06:33:52;100422.72;;;5.23;100.00
42591;BME280;28218;53.342;-6.216;2022-12-18T06:36:20;100398.41;;;5.23;100.00
42591;BME280;28218;53.342;-6.216;2022-12-18T06:38:48;100398.69;;;5.20;100.00
42591;BME280;28218;53.342;-6.216;2022-12-18T06:41:19;100391.81;;;5.19;100.00
42591;BME280;28218;53.342;-6.216;2022-12-18T06:43:48;100381.91;;;5.12;100.00
42591;BME280;28218;53.342;-6.216;2022-12-18T06:46:19;100379.44;;;5.11;100.00
42591;BME280;28218;53.342;-6.216;2022-12-18T06:48:48;100370.94;;;5.09;100.00
42591;BME280;28218;53.342;-6.216;2022-12-18T06:51:19;100382.47;;;5.06;100.00
42591;BME280;28218;53.342;-6.216;2022-12-18T06:53:48;100383.28;;;5.07;100.00
42591;BME280;28218;53.342;-6.216;2022-12-18T06:56:17;100390.47;;;5.05;100.00
42591;BME280;28218;53.342;-6.216;2022-12-18T06:58:45;100382.91;;;5.02;100.00
42591;BME280;28218;53.342;-6.216;2022-12-18T07:01:13;100377.28;;;4.97;100.00
42591;BME280;28218;53.342;-6.216;2022-12-18T07:03:42;100384.13;;;4.98;100.00
42591;BME280;28218;53.342;-6.216;2022-12-18T07:06:15;100380.31;;;4.92;100.00
42591;BME280;28218;53.342;-6.216;2022-12-18T07:08:45;100376.06;;;4.91;100.00
42591;BME280;28218;53.342;-6.216;2022-12-18T07:11:14;100377.84;;;4.91;100.00
42591;BME280;28218;53.342;-6.216;2022-12-18T07:13:44;100366.69;;;4.88;100.00
42591;BME280;28218;53.342;-6.216;2022-12-18T07:16:14;100397.09;;;4.90;100.00
42591;BME280;28218;53.342;-6.216;2022-12-18T07:18:50;100390.50;;;4.85;100.00
42591;BME280;28218;53.342;-6.216;2022-12-18T07:21:19;100383.19;;;4.89;100.00
42591;BME280;28218;53.342;-6.216;2022-12-18T07:23:49;100375.66;;;4.86;100.00
42591;BME280;28218;53.342;-6.216;2022-12-18T07:26:19;100384.97;;;4.88;100.00
42591;BME280;28218;53.342;-6.216;2022-12-18T07:28:48;100373.72;;;4.88;100.00
42591;BME280;28218;53.342;-6.216;2022-12-18T07:31:18;100365.59;;;4.91;100.00
42591;BME280;28218;53.342;-6.216;2022-12-18T07:33:48;100362.19;;;4.91;100.00
42591;BME280;28218;53.342;-6.216;2022-12-18T07:36:16;100370.16;;;4.99;100.00
42591;BME280;28218;53.342;-6.216;2022-12-18T07:38:46;100375.22;;;5.00;100.00
42591;BME280;28218;53.342;-6.216;2022-12-18T07:41:17;100376.69;;;5.03;100.00
42591;BME280;28218;53.342;-6.216;2022-12-18T07:43:45;100374.78;;;5.05;100.00
42591;BME280;28218;53.342;-6.216;2022-12-18T07:46:14;100372.84;;;5.07;100.00
42591;BME280;28218;53.342;-6.216;2022-12-18T07:48:44;100363.63;;;5.12;100.00
42591;BME280;28218;53.342;-6.216;2022-12-18T07:51:16;100400.88;;;5.15;100.00
42591;BME280;28218;53.342;-6.216;2022-12-18T07:53:45;100374.34;;;5.19;100.00
42591;BME280;28218;53.342;-6.216;2022-12-18T07:56:19;100371.59;;;5.21;100.00
42591;BME280;28218;53.342;-6.216;2022-12-18T07:58:54;100381.38;;;5.19;100.00
42591;BME280;28218;53.342;-6.216;2022-12-18T08:01:23;100375.00;;;5.21;100.00
42591;BME280;28218;53.342;-6.216;2022-12-18T08:03:52;100358.41;;;5.22;100.00
42591;BME280;28218;53.342;-6.216;2022-12-18T08:06:20;100365.25;;;5.23;100.00
42591;BME280;28218;53.342;-6.216;2022-12-18T08:08:51;100331.59;;;5.20;100.00
42591;BME280;28218;53.342;-6.216;2022-12-18T08:11:21;100336.81;;;5.20;100.00
42591;BME280;28218;53.342;-6.216;2022-12-18T08:13:49;100335.72;;;5.23;100.00
42591;BME280;28218;53.342;-6.216;2022-12-18T08:16:18;100328.69;;;5.23;100.00
42591;BME280;28218;53.342;-6.216;2022-12-18T08:18:47;100319.88;;;5.24;100.00
42591;BME280;28218;53.342;-6.216;2022-12-18T08:21:18;100287.19;;;5.20;100.00
42591;BME280;28218;53.342;-6.216;2022-12-18T08:23:50;100284.56;;;5.20;100.00
42591;BME280;28218;53.342;-6.216;2022-12-18T08:26:20;100272.75;;;5.16;100.00
42591;BME280;28218;53.342;-6.216;2022-12-18T08:28:49;100266.72;;;5.16;100.00
42591;BME280;28218;53.342;-6.216;2022-12-18T08:31:18;100260.66;;;5.15;100.00
42591;BME280;28218;53.342;-6.216;2022-12-18T08:33:48;100250.22;;;5.15;100.00
42591;BME280;28218;53.342;-6.216;2022-12-18T08:36:16;100238.13;;;5.14;100.00
42591;BME280;28218;53.342;-6.216;2022-12-18T08:38:45;100222.47;;;5.14;100.00
42591;BME280;28218;53.342;-6.216;2022-12-18T08:41:14;100195.38;;;5.15;100.00
42591;BME280;28218;53.342;-6.216;2022-12-18T08:43:45;100178.72;;;5.16;100.00
42591;BME280;28218;53.342;-6.216;2022-12-18T08:46:35;100159.78;;;5.14;100.00
42591;BME280;28218;53.342;-6.216;2022-12-18T08:49:04;100157.19;;;5.14;100.00
42591;BME280;28218;53.342;-6.216;2022-12-18T08:51:33;100141.50;;;5.14;100.00
42591;BME280;28218;53.342;-6.216;2022-12-18T08:54:01;100124.88;;;5.15;100.00
42591;BME280;28218;53.342;-6.216;2022-12-18T08:56:32;100106.31;;;5.18;100.00
42591;BME280;28218;53.342;-6.216;2022-12-18T08:59:02;100088.00;;;5.18;100.00
42591;BME280;28218;53.342;-6.216;2022-12-18T09:01:31;100088.88;;;5.27;100.00
42591;BME280;28218;53.342;-6.216;2022-12-18T09:04:01;100077.69;;;5.34;100.00
42591;BME280;28218;53.342;-6.216;2022-12-18T09:06:30;100063.66;;;5.35;100.00
42591;BME280;28218;53.342;-6.216;2022-12-18T09:08:58;100049.13;;;5.33;100.00
42591;BME280;28218;53.342;-6.216;2022-12-18T09:11:28;100022.69;;;5.36;100.00
42591;BME280;28218;53.342;-6.216;2022-12-18T09:13:57;100010.47;;;5.36;100.00
42591;BME280;28218;53.342;-6.216;2022-12-18T09:16:28;100012.91;;;5.38;100.00
42591;BME280;28218;53.342;-6.216;2022-12-18T09:18:59;100009.31;;;5.39;100.00
42591;BME280;28218;53.342;-6.216;2022-12-18T09:21:29;99998.88;;;5.39;100.00
42591;BME280;28218;53.342;-6.216;2022-12-18T09:24:03;99991.84;;;5.39;100.00
42591;BME280;28218;53.342;-6.216;2022-12-18T09:26:35;99984.19;;;5.38;100.00
42591;BME280;28218;53.342;-6.216;2022-12-18T09:29:04;99966.06;;;5.36;100.00
42591;BME280;28218;53.342;-6.216;2022-12-18T09:31:36;99946.78;;;5.37;100.00
42591;BME280;28218;53.342;-6.216;2022-12-18T09:34:04;99940.59;;;5.38;100.00
42591;BME280;28218;53.342;-6.216;2022-12-18T09:36:33;99905.81;;;5.38;100.00
42591;BME280;28218;53.342;-6.216;2022-12-18T09:39:01;99868.25;;;5.39;100.00
42591;BME280;28218;53.342;-6.216;2022-12-18T09:41:45;99847.19;;;5.41;100.00
42591;BME280;28218;53.342;-6.216;2022-12-18T09:44:22;99843.63;;;5.42;100.00
42591;BME280;28218;53.342;-6.216;2022-12-18T09:47:00;99817.50;;;5.42;100.00
42591;BME280;28218;53.342;-6.216;2022-12-18T09:49:34;99815.53;;;5.44;100.00
42591;BME280;28218;53.342;-6.216;2022-12-18T09:52:09;99812.91;;;5.44;100.00
42591;BME280;28218;53.342;-6.216;2022-12-18T09:54:39;99799.56;;;5.47;100.00
42591;BME280;28218;53.342;-6.216;2022-12-18T09:57:14;99788.13;;;5.48;100.00
42591;BME280;28218;53.342;-6.216;2022-12-18T09:59:47;99779.47;;;5.47;100.00
42591;BME280;28218;53.342;-6.216;2022-12-18T10:02:20;99769.00;;;5.47;100.00
42591;BME280;28218;53.342;-6.216;2022-12-18T10:05:01;99747.13;;;5.48;100.00
42591;BME280;28218;53.342;-6.216;2022-12-18T10:07:42;99735.06;;;5.47;100.00
42591;BME280;28218;53.342;-6.216;2022-12-18T10:10:19;99706.81;;;5.51;100.00
42591;BME280;28218;53.342;-6.216;2022-12-18T10:12:56;99699.78;;;5.51;100.00
42591;BME280;28218;53.342;-6.216;2022-12-18T10:15:35;99711.69;;;5.54;100.00
42591;BME280;28218;53.342;-6.216;2022-12-18T10:18:26;99668.59;;;5.58;100.00
42591;BME280;28218;53.342;-6.216;2022-12-18T10:21:01;99670.09;;;5.60;100.00
42591;BME280;28218;53.342;-6.216;2022-12-18T10:23:38;99661.25;;;5.61;100.00
42591;BME280;28218;53.342;-6.216;2022-12-18T10:26:13;99650.97;;;5.60;100.00
42591;BME280;28218;53.342;-6.216;2022-12-18T10:28:43;99670.56;;;5.64;100.00
42591;BME280;28218;53.342;-6.216;2022-12-18T10:31:16;99650.16;;;5.68;100.00
42591;BME280;28218;53.342;-6.216;2022-12-18T10:33:46;99664.03;;;5.68;100.00
42591;BME280;28218;53.342;-6.216;2022-12-18T10:36:14;99638.56;;;5.70;100.00
42591;BME280;28218;53.342;-6.216;2022-12-18T10:38:43;99647.53;;;5.76;100.00
42591;BME280;28218;53.342;-6.216;2022-12-18T10:41:24;99627.94;;;5.80;100.00
42591;BME280;28218;53.342;-6.216;2022-12-18T10:44:19;99619.94;;;5.81;100.00
42591;BME280;28218;53.342;-6.216;2022-12-18T10:46:49;99619.44;;;5.86;100.00
42591;BME280;28218;53.342;-6.216;2022-12-18T10:49:22;99613.22;;;5.87;100.00
42591;BME280;28218;53.342;-6.216;2022-12-18T10:51:51;99601.63;;;5.89;100.00
42591;BME280;28218;53.342;-6.216;2022-12-18T10:54:33;99600.00;;;5.88;100.00
42591;BME280;28218;53.342;-6.216;2022-12-18T10:57:16;99600.66;;;5.90;100.00
42591;BME280;28218;53.342;-6.216;2022-12-18T10:59:53;99592.81;;;5.90;100.00
42591;BME280;28218;53.342;-6.216;2022-12-18T11:02:27;99568.31;;;5.92;100.00
42591;BME280;28218;53.342;-6.216;2022-12-18T11:04:57;99575.03;;;5.94;100.00
42591;BME280;28218;53.342;-6.216;2022-12-18T11:07:26;99548.06;;;5.94;100.00
42591;BME280;28218;53.342;-6.216;2022-12-18T11:10:17;99559.97;;;5.96;100.00
42591;BME280;28218;53.342;-6.216;2022-12-18T11:12:46;99526.97;;;5.95;100.00
42591;BME280;28218;53.342;-6.216;2022-12-18T11:15:18;99516.34;;;5.97;100.00
42591;BME280;28218;53.342;-6.216;2022-12-18T11:17:48;99515.03;;;6.01;100.00
42591;BME280;28218;53.342;-6.216;2022-12-18T11:20:29;99497.38;;;6.03;100.00
42591;BME280;28218;53.342;-6.216;2022-12-18T11:23:00;99479.72;;;6.05;100.00
42591;BME280;28218;53.342;-6.216;2022-12-18T11:25:31;99455.19;;;6.06;100.00
42591;BME280;28218;53.342;-6.216;2022-12-18T11:28:02;99439.97;;;6.09;100.00
42591;BME280;28218;53.342;-6.216;2022-12-18T11:30:33;99420.16;;;6.15;100.00
42591;BME280;28218;53.342;-6.216;2022-12-18T11:33:04;99410.38;;;6.17;100.00
42591;BME280;28218;53.342;-6.216;2022-12-18T11:35:50;99403.16;;;6.19;100.00
42591;BME280;28218;53.342;-6.216;2022-12-18T11:38:22;99387.13;;;6.22;100.00
42591;BME280;28218;53.342;-6.216;2022-12-18T11:40:56;99369.44;;;6.24;100.00
42591;BME280;28218;53.342;-6.216;2022-12-18T11:43:29;99364.69;;;6.28;100.00
42591;BME280;28218;53.342;-6.216;2022-12-18T11:46:02;99344.56;;;6.28;100.00
42591;BME280;28218;53.342;-6.216;2022-12-18T11:48:36;99317.06;;;6.32;100.00
42591;BME280;28218;53.342;-6.216;2022-12-18T11:51:14;99301.38;;;6.32;100.00
42591;BME280;28218;53.342;-6.216;2022-12-18T11:53:52;99288.63;;;6.29;100.00
42591;BME280;28218;53.342;-6.216;2022-12-18T11:56:30;99247.53;;;6.38;100.00
42591;BME280;28218;53.342;-6.216;2022-12-18T11:59:08;99257.38;;;6.36;100.00
42591;BME280;28218;53.342;-6.216;2022-12-18T12:01:46;99232.19;;;6.35;100.00
42591;BME280;28218;53.342;-6.216;2022-12-18T12:04:40;99214.06;;;6.48;100.00
42591;BME280;28218;53.342;-6.216;2022-12-18T12:07:21;99216.44;;;6.58;100.00
42591;BME280;28218;53.342;-6.216;2022-12-18T12:10:02;99198.38;;;6.48;100.00
42591;BME280;28218;53.342;-6.216;2022-12-18T12:12:40;99189.84;;;6.69;100.00
42591;BME280;28218;53.342;-6.216;2022-12-18T12:15:28;99186.94;;;6.64;100.00
42591;BME280;28218;53.342;-6.216;2022-12-18T12:18:03;99179.19;;;6.71;100.00
42591;BME280;28218;53.342;-6.216;2022-12-18T12:20:46;99169.25;;;6.66;100.00
42591;BME280;28218;53.342;-6.216;2022-12-18T12:23:26;99170.06;;;6.66;100.00
42591;BME280;28218;53.342;-6.216;2022-12-18T12:26:04;99164.66;;;6.68;100.00
42591;BME280;28218;53.342;-6.216;2022-12-18T12:29:00;99138.66;;;6.66;100.00
42591;BME280;28218;53.342;-6.216;2022-12-18T12:31:44;99146.97;;;6.70;100.00
42591;BME280;28218;53.342;-6.216;2022-12-18T12:34:19;99135.50;;;6.71;100.00
42591;BME280;28218;53.342;-6.216;2022-12-18T12:37:01;99118.63;;;6.74;100.00
42591;BME280;28218;53.342;-6.216;2022-12-18T12:39:36;99105.34;;;6.75;100.00
42591;BME280;28218;53.342;-6.216;2022-12-18T12:42:10;99094.31;;;6.80;100.00
42591;BME280;28218;53.342;-6.216;2022-12-18T12:44:58;99077.63;;;6.81;100.00
42591;BME280;28218;53.342;-6.216;2022-12-18T12:47:32;99061.34;;;6.85;100.00
42591;BME280;28218;53.342;-6.216;2022-12-18T12:50:04;99051.13;;;6.90;100.00
42591;BME280;28218;53.342;-6.216;2022-12-18T12:52:37;99045.19;;;6.97;100.00
42591;BME280;28218;53.342;-6.216;2022-12-18T12:55:15;99020.22;;;7.01;100.00
42591;BME280;28218;53.342;-6.216;2022-12-18T12:57:55;99014.63;;;7.04;100.00
42591;BME280;28218;53.342;-6.216;2022-12-18T13:00:29;99009.63;;;7.09;100.00
42591;BME280;28218;53.342;-6.216;2022-12-18T13:03:08;99014.66;;;7.10;100.00
42591;BME280;28218;53.342;-6.216;2022-12-18T13:05:41;99003.81;;;7.13;100.00
42591;BME280;28218;53.342;-6.216;2022-12-18T13:08:21;99006.44;;;7.13;100.00
42591;BME280;28218;53.342;-6.216;2022-12-18T13:10:52;99001.84;;;7.15;100.00